Time;durP1;ratioP1;P1;durP2;ratioP2;P2;SDS_P1;SDS_P2;PMS_P1;PMS_P2;Temp;Humidity;BMP_temperature;BMP_pressure;BME280_temperature;BME280_humidity;BME280_pressure;Samples;Min_cycle;Max_cycle;Signal;HPM_P1;HPM_P2
2022/09/13 00:01:59;;;;;;;11.95;7.37;;;;;;;;;;4389911;32;20673;-86
2022/09/13 00:04:27;;;;;;;11.02;5.18;;;;;;;;;;4390129;32;20745;-86
2022/09/13 00:06:55;;;;;;;7.97;5.12;;;;;;;;;;4390109;32;20292;-86
2022/09/13 00:09:23;;;;;;;12.10;5.45;;;;;;;;;;4377052;32;20726;-87
2022/09/13 00:11:52;;;;;;;8.45;5.07;;;;;;;;;;4390319;32;20672;-84
2022/09/13 00:14:19;;;;;;;7.82;5.50;;;;;;;;;;4391726;32;20216;-87
2022/09/13 00:16:47;;;;;;;6.40;4.70;;;;;;;;;;4391733;32;20563;-87
2022/09/13 00:19:16;;;;;;;5.80;4.50;;;;;;;;;;4392194;32;20535;-82
2022/09/13 00:21:45;;;;;;;7.82;4.57;;;;;;;;;;4391189;32;20563;-86
2022/09/13 00:24:13;;;;;;;10.35;4.57;;;;;;;;;;4391476;32;20677;-84
2022/09/13 00:26:44;;;;;;;4.28;3.75;;;;;;;;;;4392608;32;20604;-86
2022/09/13 00:29:13;;;;;;;4.10;3.28;;;;;;;;;;4393092;32;20653;-86
2022/09/13 00:31:41;;;;;;;3.75;3.08;;;;;;;;;;4377816;32;20634;-87
2022/09/13 00:34:09;;;;;;;3.15;2.67;;;;;;;;;;4392290;32;20536;-86
2022/09/13 00:36:36;;;;;;;4.15;3.42;;;;;;;;;;4392314;32;20684;-85
2022/09/13 00:39:04;;;;;;;4.57;3.92;;;;;;;;;;4392212;32;20247;-84
2022/09/13 00:41:32;;;;;;;4.75;3.75;;;;;;;;;;4392510;32;20635;-87
2022/09/13 00:44:01;;;;;;;6.62;3.60;;;;;;;;;;4392340;32;20548;-86
2022/09/13 00:46:36;;;;;;;10.07;3.22;;;;;;;;;;4392430;32;20308;-85
2022/09/13 00:49:12;;;;;;;6.18;3.70;;;;;;;;;;4392855;32;20559;-86
2022/09/13 00:51:43;;;;;;;4.55;3.35;;;;;;;;;;4392542;32;20733;-86
2022/09/13 00:54:12;;;;;;;4.12;3.33;;;;;;;;;;4392175;32;20541;-85
2022/09/13 00:56:47;;;;;;;10.88;3.60;;;;;;;;;;4391895;32;20570;-84
2022/09/13 00:59:20;;;;;;;4.53;3.70;;;;;;;;;;4392071;32;20557;-84
2022/09/13 01:01:53;;;;;;;5.28;4.12;;;;;;;;;;4392125;32;20230;-84
2022/09/13 01:04:23;;;;;;;4.05;3.35;;;;;;;;;;4392024;32;21342;-86
2022/09/13 01:06:53;;;;;;;7.07;3.17;;;;;;;;;;4391626;32;20252;-86
2022/09/13 01:09:21;;;;;;;4.57;3.83;;;;;;;;;;4392468;32;20501;-84
2022/09/13 01:11:59;;;;;;;3.72;3.33;;;;;;;;;;4392242;32;20643;-86
2022/09/13 01:14:28;;;;;;;4.07;3.65;;;;;;;;;;4391833;32;20512;-86
2022/09/13 01:16:58;;;;;;;7.28;3.33;;;;;;;;;;4391906;32;20598;-86
2022/09/13 01:19:25;;;;;;;4.32;3.17;;;;;;;;;;4392058;32;20563;-86
2022/09/13 01:22:53;;;;;;;2.87;2.67;;;;;;;;;;4391868;32;20710;-87
2022/09/13 01:25:53;;;;;;;4.10;3.70;;;;;;;;;;4319582;33;20672;-87
2022/09/13 01:28:44;;;;;;;7.28;3.37;;;;;;;;;;4326776;33;20680;-87
2022/09/13 01:31:21;;;;;;;5.87;3.33;;;;;;;;;;4391847;32;20332;-86
2022/09/13 01:34:01;;;;;;;7.85;4.43;;;;;;;;;;4391875;32;20547;-87
2022/09/13 01:36:55;;;;;;;3.87;3.50;;;;;;;;;;4391876;32;20619;-85
2022/09/13 01:39:34;;;;;;;11.70;5.43;;;;;;;;;;4392420;32;20649;-85
2022/09/13 01:42:13;;;;;;;7.47;5.75;;;;;;;;;;4391634;32;20571;-86
2022/09/13 01:44:55;;;;;;;6.43;4.35;;;;;;;;;;4392016;32;20649;-86
2022/09/13 01:47:30;;;;;;;9.13;5.12;;;;;;;;;;4391256;32;20545;-86
2022/09/13 01:50:16;;;;;;;6.47;4.97;;;;;;;;;;4392219;32;20622;-86
2022/09/13 01:52:51;;;;;;;5.00;4.18;;;;;;;;;;4391654;32;20669;-87
2022/09/13 01:55:27;;;;;;;4.57;3.87;;;;;;;;;;4392124;32;20602;-85
2022/09/13 01:58:03;;;;;;;5.40;4.18;;;;;;;;;;4391484;32;20559;-86
2022/09/13 02:00:35;;;;;;;7.22;3.87;;;;;;;;;;4391854;32;20645;-87
2022/09/13 02:03:07;;;;;;;10.05;4.05;;;;;;;;;;4391304;32;20788;-87
2022/09/13 02:05:40;;;;;;;5.03;4.35;;;;;;;;;;4391013;32;20519;-87
2022/09/13 02:08:12;;;;;;;5.07;4.00;;;;;;;;;;4391032;32;20655;-84
2022/09/13 02:10:44;;;;;;;5.53;3.92;;;;;;;;;;4391638;32;20546;-87
2022/09/13 02:13:16;;;;;;;7.90;4.10;;;;;;;;;;4391170;32;20548;-86
2022/09/13 02:15:47;;;;;;;7.90;4.90;;;;;;;;;;4391219;32;20540;-85
2022/09/13 02:18:22;;;;;;;5.50;4.25;;;;;;;;;;4390931;32;20554;-86
2022/09/13 02:20:53;;;;;;;6.50;3.87;;;;;;;;;;4391074;32;20538;-85
2022/09/13 02:23:26;;;;;;;6.35;3.95;;;;;;;;;;4390856;32;20383;-85
2022/09/13 02:25:56;;;;;;;7.28;3.80;;;;;;;;;;4391135;32;20711;-86
2022/09/13 02:28:28;;;;;;;8.10;4.82;;;;;;;;;;4390988;32;20535;-87
2022/09/13 02:30:59;;;;;;;9.38;5.68;;;;;;;;;;4391243;32;20530;-84
2022/09/13 02:33:32;;;;;;;6.40;4.93;;;;;;;;;;4391487;32;20609;-85
2022/09/13 02:36:02;;;;;;;6.75;5.40;;;;;;;;;;4390780;32;20527;-86
2022/09/13 02:38:35;;;;;;;7.68;4.93;;;;;;;;;;4390825;32;20206;-86
2022/09/13 02:41:10;;;;;;;8.52;5.85;;;;;;;;;;4390532;32;20600;-84
2022/09/13 02:43:41;;;;;;;7.68;5.28;;;;;;;;;;4390835;32;20684;-87
2022/09/13 02:46:31;;;;;;;12.52;5.50;;;;;;;;;;4390509;32;20551;-86
2022/09/13 02:49:10;;;;;;;12.30;5.95;;;;;;;;;;4391218;32;20598;-85
2022/09/13 02:51:46;;;;;;;7.00;5.12;;;;;;;;;;4391454;32;20554;-86
2022/09/13 02:54:23;;;;;;;8.88;5.93;;;;;;;;;;4391607;32;20603;-86
2022/09/13 02:56:57;;;;;;;9.48;5.87;;;;;;;;;;4391808;32;20661;-86
2022/09/13 02:59:25;;;;;;;8.90;4.95;;;;;;;;;;4391526;32;20658;-86
2022/09/13 03:01:58;;;;;;;9.77;6.60;;;;;;;;;;4391738;32;20536;-86
2022/09/13 03:04:29;;;;;;;15.48;6.50;;;;;;;;;;4391814;32;20364;-86
2022/09/13 03:06:57;;;;;;;13.40;7.78;;;;;;;;;;4391651;32;20612;-87
2022/09/13 03:09:26;;;;;;;11.35;7.65;;;;;;;;;;4391440;32;20434;-86
2022/09/13 03:12:16;;;;;;;11.43;7.90;;;;;;;;;;4391158;32;20666;-86
2022/09/13 03:14:50;;;;;;;10.25;6.78;;;;;;;;;;4391542;32;20260;-85
2022/09/13 03:17:35;;;;;;;13.57;7.97;;;;;;;;;;4391262;32;20309;-86
2022/09/13 03:20:20;;;;;;;9.32;6.75;;;;;;;;;;4391277;32;20509;-86
2022/09/13 03:23:13;;;;;;;9.43;6.80;;;;;;;;;;4377737;32;20682;-87
2022/09/13 03:26:00;;;;;;;6.12;4.85;;;;;;;;;;4391331;32;20569;-86
2022/09/13 03:28:36;;;;;;;5.62;4.43;;;;;;;;;;4390233;32;20631;-85
2022/09/13 03:31:08;;;;;;;7.72;5.03;;;;;;;;;;4389978;32;20583;-87
2022/09/13 03:33:44;;;;;;;11.80;4.82;;;;;;;;;;4390444;32;20547;-87
2022/09/13 03:36:19;;;;;;;5.37;4.28;;;;;;;;;;4390206;32;20512;-87
2022/09/13 03:38:55;;;;;;;8.25;4.97;;;;;;;;;;4390841;32;20629;-87
2022/09/13 03:41:26;;;;;;;5.15;4.12;;;;;;;;;;4390653;32;20387;-85
2022/09/13 03:43:57;;;;;;;4.53;4.03;;;;;;;;;;4390094;32;20690;-85
2022/09/13 03:46:31;;;;;;;11.30;4.28;;;;;;;;;;4389959;32;20297;-86
2022/09/13 03:49:03;;;;;;;10.38;5.10;;;;;;;;;;4390283;32;20598;-86
2022/09/13 03:51:32;;;;;;;12.07;5.05;;;;;;;;;;4389951;32;20543;-88
2022/09/13 03:54:03;;;;;;;6.15;4.53;;;;;;;;;;4389611;32;20273;-86
2022/09/13 03:56:31;;;;;;;8.13;4.65;;;;;;;;;;4389659;32;20600;-86
2022/09/13 03:58:58;;;;;;;4.62;4.00;;;;;;;;;;4391140;32;20557;-86
2022/09/13 04:01:26;;;;;;;7.87;3.90;;;;;;;;;;4393150;32;20571;-85
2022/09/13 04:03:54;;;;;;;8.07;4.60;;;;;;;;;;4393041;32;20655;-86
2022/09/13 04:06:22;;;;;;;10.40;4.00;;;;;;;;;;4392827;32;20551;-86
2022/09/13 04:08:51;;;;;;;7.43;4.37;;;;;;;;;;4392944;32;20202;-86
2022/09/13 04:11:20;;;;;;;5.95;4.30;;;;;;;;;;4392732;32;20425;-85
2022/09/13 04:13:48;;;;;;;6.75;4.00;;;;;;;;;;4392845;32;20622;-85
2022/09/13 04:16:15;;;;;;;9.98;4.57;;;;;;;;;;4392834;32;20607;-85
2022/09/13 04:18:42;;;;;;;7.70;4.40;;;;;;;;;;4393062;32;20277;-86
2022/09/13 04:21:10;;;;;;;9.98;4.10;;;;;;;;;;4392615;32;20638;-86
2022/09/13 04:23:38;;;;;;;8.13;4.60;;;;;;;;;;4393052;32;20597;-87
2022/09/13 04:26:07;;;;;;;11.50;4.50;;;;;;;;;;4392498;32;20372;-88
2022/09/13 04:28:34;;;;;;;10.27;5.00;;;;;;;;;;4392991;32;20608;-86
2022/09/13 04:31:02;;;;;;;10.47;5.37;;;;;;;;;;4393015;32;20610;-86
2022/09/13 04:33:33;;;;;;;12.70;5.97;;;;;;;;;;4393117;32;20320;-86
2022/09/13 04:36:00;;;;;;;25.48;9.00;;;;;;;;;;4393288;32;20598;-86
2022/09/13 04:38:30;;;;;;;30.10;10.45;;;;;;;;;;4392799;32;20554;-80
2022/09/13 04:40:58;;;;;;;23.48;10.13;;;;;;;;;;4392482;32;20554;-79
2022/09/13 04:43:26;;;;;;;21.60;8.63;;;;;;;;;;4392725;32;20634;-88
2022/09/13 04:45:54;;;;;;;20.40;8.18;;;;;;;;;;4392605;32;20527;-84
2022/09/13 04:48:21;;;;;;;17.90;8.07;;;;;;;;;;4392266;32;20555;-84
2022/09/13 04:50:49;;;;;;;12.73;7.10;;;;;;;;;;4392683;32;20535;-83
2022/09/13 04:53:17;;;;;;;12.48;7.87;;;;;;;;;;4392392;32;20581;-83
2022/09/13 04:55:44;;;;;;;19.00;5.65;;;;;;;;;;4392388;32;20583;-83
2022/09/13 04:58:12;;;;;;;15.57;6.70;;;;;;;;;;4392378;32;20655;-83
2022/09/13 05:00:41;;;;;;;10.93;6.82;;;;;;;;;;4392364;32;20211;-83
2022/09/13 05:03:08;;;;;;;17.73;6.50;;;;;;;;;;4392273;32;20568;-82
2022/09/13 05:05:36;;;;;;;16.25;6.72;;;;;;;;;;4391962;32;20520;-83
2022/09/13 05:08:03;;;;;;;14.73;6.78;;;;;;;;;;4391783;32;20383;-83
2022/09/13 05:10:31;;;;;;;13.48;6.70;;;;;;;;;;4391259;32;20627;-83
2022/09/13 05:12:58;;;;;;;14.87;7.17;;;;;;;;;;4392049;32;20602;-80
2022/09/13 05:15:26;;;;;;;19.73;7.37;;;;;;;;;;4391964;32;20602;-81
2022/09/13 05:17:54;;;;;;;11.65;7.47;;;;;;;;;;4391738;32;20773;-83
2022/09/13 05:20:22;;;;;;;14.90;6.90;;;;;;;;;;4391755;32;20726;-82
2022/09/13 05:22:49;;;;;;;10.63;6.55;;;;;;;;;;4391800;32;20532;-83
2022/09/13 05:25:16;;;;;;;14.30;7.47;;;;;;;;;;4391782;32;20582;-85
2022/09/13 05:27:46;;;;;;;17.73;6.68;;;;;;;;;;4391436;32;20395;-83
2022/09/13 05:30:14;;;;;;;14.23;8.37;;;;;;;;;;4391515;32;20598;-82
2022/09/13 05:32:41;;;;;;;28.67;9.45;;;;;;;;;;4391287;32;20566;-83
2022/09/13 05:35:11;;;;;;;24.67;9.25;;;;;;;;;;4391095;32;20591;-83
2022/09/13 05:37:39;;;;;;;27.70;8.88;;;;;;;;;;4391168;32;20627;-81
2022/09/13 05:40:08;;;;;;;13.68;7.82;;;;;;;;;;4391640;32;20224;-83
2022/09/13 05:42:35;;;;;;;18.90;8.25;;;;;;;;;;4391134;32;20798;-83
2022/09/13 05:45:06;;;;;;;17.20;7.90;;;;;;;;;;4391604;32;20576;-82
2022/09/13 05:47:33;;;;;;;14.32;7.60;;;;;;;;;;4391338;32;20625;-84
2022/09/13 05:50:01;;;;;;;21.67;8.80;;;;;;;;;;4391554;32;20549;-83
2022/09/13 05:52:30;;;;;;;18.58;7.43;;;;;;;;;;4377814;32;20563;-81
2022/09/13 05:54:58;;;;;;;14.27;6.63;;;;;;;;;;4391534;32;20571;-83
2022/09/13 05:57:25;;;;;;;10.45;5.90;;;;;;;;;;4391223;32;20552;-82
2022/09/13 05:59:52;;;;;;;10.68;5.60;;;;;;;;;;4391109;32;20582;-86
2022/09/13 06:02:20;;;;;;;6.87;5.53;;;;;;;;;;4391256;32;20631;-81
2022/09/13 06:04:49;;;;;;;13.62;6.18;;;;;;;;;;4391513;32;20505;-92
2022/09/13 06:07:17;;;;;;;9.30;6.00;;;;;;;;;;4390248;32;20543;-89
2022/09/13 06:09:46;;;;;;;7.72;5.47;;;;;;;;;;4389783;32;20244;-86
2022/09/13 06:12:13;;;;;;;10.90;5.43;;;;;;;;;;4391952;32;20335;-88
2022/09/13 06:14:41;;;;;;;10.93;5.23;;;;;;;;;;4391584;32;20549;-91
2022/09/13 06:17:08;;;;;;;6.78;6.07;;;;;;;;;;4391514;32;20578;-91
2022/09/13 06:19:36;;;;;;;12.10;6.03;;;;;;;;;;4391594;32;20693;-87
2022/09/13 06:22:03;;;;;;;14.25;5.93;;;;;;;;;;4391692;32;20548;-91
2022/09/13 06:24:31;;;;;;;9.03;5.57;;;;;;;;;;4392411;32;20662;-92
2022/09/13 06:27:01;;;;;;;8.65;6.40;;;;;;;;;;4391578;32;20586;-93
2022/09/13 06:29:29;;;;;;;14.02;6.78;;;;;;;;;;4391304;32;20604;-91
2022/09/13 06:31:56;;;;;;;7.05;5.75;;;;;;;;;;4392658;32;20319;-92
2022/09/13 06:34:24;;;;;;;10.63;5.85;;;;;;;;;;4394987;32;20618;-92
2022/09/13 06:36:51;;;;;;;8.07;6.28;;;;;;;;;;4394565;32;20582;-91
2022/09/13 06:39:19;;;;;;;5.97;5.37;;;;;;;;;;4394318;32;20528;-89
2022/09/13 06:41:46;;;;;;;15.30;6.00;;;;;;;;;;4395507;32;20738;-81
2022/09/13 06:44:16;;;;;;;7.57;6.00;;;;;;;;;;4406864;32;20209;-82
2022/09/13 06:46:43;;;;;;;12.03;6.13;;;;;;;;;;4406505;32;20218;-83
2022/09/13 06:49:11;;;;;;;14.83;6.53;;;;;;;;;;4407270;32;20159;-81
2022/09/13 06:51:40;;;;;;;12.23;6.83;;;;;;;;;;4407244;32;20237;-81
2022/09/13 06:54:12;;;;;;;10.50;6.93;;;;;;;;;;4393922;32;20248;-81
2022/09/13 06:56:42;;;;;;;14.50;6.10;;;;;;;;;;4406676;32;20256;-82
2022/09/13 06:59:17;;;;;;;14.07;6.67;;;;;;;;;;4389577;32;20689;-91
2022/09/13 07:01:45;;;;;;;12.90;5.50;;;;;;;;;;4401870;32;20272;-83
2022/09/13 07:04:18;;;;;;;9.45;5.43;;;;;;;;;;4406858;32;20213;-82
2022/09/13 07:07:25;;;;;;;6.55;5.93;;;;;;;;;;4406598;32;20348;-83
2022/09/13 07:09:56;;;;;;;7.85;6.10;;;;;;;;;;4359825;33;20253;-82
2022/09/13 07:12:27;;;;;;;9.30;6.03;;;;;;;;;;4358916;33;20255;-89
2022/09/13 07:15:01;;;;;;;14.70;5.82;;;;;;;;;;4354686;33;20697;-90
2022/09/13 07:17:30;;;;;;;9.27;6.30;;;;;;;;;;4344296;33;20326;-91
2022/09/13 07:19:58;;;;;;;7.85;5.37;;;;;;;;;;4344139;33;20609;-91
2022/09/13 07:22:26;;;;;;;11.75;5.35;;;;;;;;;;4344159;33;20698;-91
2022/09/13 07:24:54;;;;;;;5.47;4.62;;;;;;;;;;4344413;33;20262;-91
2022/09/13 07:27:21;;;;;;;12.85;5.53;;;;;;;;;;4344031;33;20268;-90
2022/09/13 07:29:49;;;;;;;9.05;5.65;;;;;;;;;;4344383;33;20696;-90
2022/09/13 07:32:18;;;;;;;11.10;5.28;;;;;;;;;;4343817;33;20382;-81
2022/09/13 07:34:46;;;;;;;14.02;5.70;;;;;;;;;;4373721;32;20263;-80
2022/09/13 07:37:13;;;;;;;8.45;5.03;;;;;;;;;;4390794;32;20612;-88
2022/09/13 07:39:40;;;;;;;8.73;4.30;;;;;;;;;;4400096;32;20249;-86
2022/09/13 07:42:09;;;;;;;6.12;4.43;;;;;;;;;;4402174;32;20576;-91
2022/09/13 07:44:37;;;;;;;8.02;4.65;;;;;;;;;;4400503;32;20285;-89
2022/09/13 07:47:05;;;;;;;6.47;5.37;;;;;;;;;;4393275;32;20676;-92
2022/09/13 07:49:37;;;;;;;6.60;4.47;;;;;;;;;;4391466;32;20233;-90
2022/09/13 07:52:05;;;;;;;10.38;5.45;;;;;;;;;;4390610;32;20664;-91
2022/09/13 07:54:34;;;;;;;10.95;5.25;;;;;;;;;;4391650;32;20608;-90
2022/09/13 07:57:03;;;;;;;11.25;4.65;;;;;;;;;;4377394;32;20222;-91
2022/09/13 07:59:30;;;;;;;12.20;4.43;;;;;;;;;;4390363;32;20240;-91
2022/09/13 08:01:58;;;;;;;8.95;2.83;;;;;;;;;;4390547;32;20658;-89
2022/09/13 08:04:26;;;;;;;9.52;4.47;;;;;;;;;;4390361;32;20609;-91
2022/09/13 08:06:55;;;;;;;6.15;3.53;;;;;;;;;;4390514;32;20555;-82
2022/09/13 08:09:23;;;;;;;2.42;2.10;;;;;;;;;;4389333;32;20578;-82
2022/09/13 08:11:52;;;;;;;5.00;2.35;;;;;;;;;;4389317;32;20615;-82
2022/09/13 08:14:21;;;;;;;2.37;1.80;;;;;;;;;;4389623;32;20555;-91
2022/09/13 08:16:48;;;;;;;5.65;1.90;;;;;;;;;;4389319;32;20624;-83
2022/09/13 08:19:18;;;;;;;2.20;1.60;;;;;;;;;;4389089;32;20525;-84
2022/09/13 08:21:46;;;;;;;5.55;1.73;;;;;;;;;;4389110;32;20570;-88
2022/09/13 08:24:17;;;;;;;7.32;2.17;;;;;;;;;;4389590;32;20608;-82
2022/09/13 08:26:45;;;;;;;2.20;2.00;;;;;;;;;;4389391;32;20222;-88
2022/09/13 08:29:13;;;;;;;2.22;1.98;;;;;;;;;;4389599;32;20498;-92
2022/09/13 08:31:41;;;;;;;14.02;4.00;;;;;;;;;;4389542;32;20570;-90
2022/09/13 08:34:11;;;;;;;4.25;2.60;;;;;;;;;;4389907;32;20215;-92
2022/09/13 08:36:39;;;;;;;1.62;1.52;;;;;;;;;;4389215;32;20701;-82
2022/09/13 08:39:08;;;;;;;1.48;1.33;;;;;;;;;;4389160;32;20749;-92
2022/09/13 08:42:07;;;;;;;3.83;2.42;;;;;;;;;;4388991;32;20642;-92
2022/09/13 08:44:38;;;;;;;2.42;1.60;;;;;;;;;;4390480;32;20668;-90
2022/09/13 08:47:24;;;;;;;3.97;1.95;;;;;;;;;;4399215;32;20233;-90
2022/09/13 08:50:01;;;;;;;2.65;1.77;;;;;;;;;;4397891;32;20378;-91
2022/09/13 08:52:33;;;;;;;6.78;2.12;;;;;;;;;;4396121;32;20338;-91
2022/09/13 08:55:07;;;;;;;2.97;2.20;;;;;;;;;;4392320;32;20641;-92
2022/09/13 08:57:44;;;;;;;4.12;2.10;;;;;;;;;;4391447;32;20577;-91
2022/09/13 09:00:21;;;;;;;4.07;1.65;;;;;;;;;;4391430;32;20643;-91
2022/09/13 09:03:06;;;;;;;3.75;2.17;;;;;;;;;;4392188;32;20232;-91
2022/09/13 09:05:46;;;;;;;5.22;1.70;;;;;;;;;;4391234;32;20555;-91
2022/09/13 09:08:27;;;;;;;1.73;1.52;;;;;;;;;;4389626;32;20677;-92
2022/09/13 09:10:59;;;;;;;1.35;1.08;;;;;;;;;;4390599;32;20624;-91
2022/09/13 09:13:32;;;;;;;3.05;1.40;;;;;;;;;;4391135;32;20205;-91
2022/09/13 09:16:06;;;;;;;1.62;1.37;;;;;;;;;;4391678;32;20693;-87
2022/09/13 09:18:37;;;;;;;2.00;1.58;;;;;;;;;;4391332;32;20320;-89
2022/09/13 09:21:09;;;;;;;4.45;1.80;;;;;;;;;;4391844;32;20635;-88
2022/09/13 09:23:39;;;;;;;1.90;1.65;;;;;;;;;;4391247;32;20598;-83
2022/09/13 09:26:17;;;;;;;2.50;2.20;;;;;;;;;;4391160;32;20301;-89
2022/09/13 09:28:47;;;;;;;2.03;1.40;;;;;;;;;;4392672;32;20638;-89
2022/09/13 09:31:21;;;;;;;2.15;1.80;;;;;;;;;;4391950;32;20626;-86
2022/09/13 09:34:01;;;;;;;2.85;1.27;;;;;;;;;;4391598;32;20594;-91
2022/09/13 09:36:38;;;;;;;3.10;1.98;;;;;;;;;;4391979;32;20674;-91
2022/09/13 09:39:06;;;;;;;3.33;1.83;;;;;;;;;;4391893;32;20508;-92
2022/09/13 09:41:37;;;;;;;9.23;2.10;;;;;;;;;;4391677;32;20630;-90
2022/09/13 09:44:17;;;;;;;2.12;1.87;;;;;;;;;;4391787;32;20588;-90
2022/09/13 09:46:48;;;;;;;4.78;1.77;;;;;;;;;;4392079;32;20657;-89
2022/09/13 09:52:27;;;;;;;5.47;1.70;;;;;;;;;;4379805;32;20260;-92
2022/09/13 09:55:02;;;;;;;3.05;1.70;;;;;;;;;;4392238;32;20201;-92
2022/09/13 09:57:49;;;;;;;4.15;1.80;;;;;;;;;;4391339;32;20565;-93
2022/09/13 10:00:20;;;;;;;2.00;1.23;;;;;;;;;;4390511;32;20551;-92
2022/09/13 10:02:52;;;;;;;2.55;1.40;;;;;;;;;;4390653;32;20644;-91
2022/09/13 10:05:20;;;;;;;2.10;1.40;;;;;;;;;;4390841;32;20297;-90
2022/09/13 10:07:56;;;;;;;3.00;1.50;;;;;;;;;;4390647;32;20643;-91
2022/09/13 10:27:50;;;;;;;2.20;1.52;;;;;;;;;;4429150;32;20697;-82
2022/09/13 10:30:31;;;;;;;5.18;1.92;;;;;;;;;;4431843;32;20786;-82
2022/09/13 10:33:01;;;;;;;2.35;1.87;;;;;;;;;;4431247;32;20257;-82
2022/09/13 10:35:29;;;;;;;2.08;1.70;;;;;;;;;;4431684;32;20362;-81
2022/09/13 10:37:56;;;;;;;2.37;1.50;;;;;;;;;;4431785;32;20329;-81
2022/09/13 10:40:28;;;;;;;2.60;1.65;;;;;;;;;;4417246;32;20246;-82
2022/09/13 10:42:59;;;;;;;3.55;1.92;;;;;;;;;;4415464;32;20307;-82
2022/09/13 10:45:28;;;;;;;3.28;1.60;;;;;;;;;;4418635;32;20272;-82
2022/09/13 10:47:56;;;;;;;4.78;1.92;;;;;;;;;;4416171;32;20322;-82
2022/09/13 10:50:25;;;;;;;2.22;1.80;;;;;;;;;;4423179;32;20229;-91
2022/09/13 10:52:53;;;;;;;3.92;2.10;;;;;;;;;;4431031;32;20268;-86
2022/09/13 10:55:44;;;;;;;1.90;1.50;;;;;;;;;;4431565;32;20553;-88
2022/09/13 10:58:18;;;;;;;2.35;1.70;;;;;;;;;;4432010;32;20312;-90
2022/09/13 11:01:18;;;;;;;2.97;1.98;;;;;;;;;;4433014;32;20402;-85
2022/09/13 11:04:11;;;;;;;3.47;1.90;;;;;;;;;;4434663;32;20376;-84
2022/09/13 11:06:43;;;;;;;3.10;1.95;;;;;;;;;;4435656;32;20221;-82
2022/09/13 11:09:14;;;;;;;3.95;2.00;;;;;;;;;;4437488;32;20371;-80
2022/09/13 11:11:47;;;;;;;5.57;2.62;;;;;;;;;;4439183;32;20244;-80
2022/09/13 11:14:32;;;;;;;3.85;2.60;;;;;;;;;;4432718;32;20240;-82
2022/09/13 11:17:05;;;;;;;2.55;1.90;;;;;;;;;;4437857;32;20232;-90
2022/09/13 11:19:56;;;;;;;4.90;2.08;;;;;;;;;;4435748;32;20251;-90
2022/09/13 11:22:47;;;;;;;7.03;1.87;;;;;;;;;;4437206;32;20248;-87
2022/09/13 11:25:30;;;;;;;7.15;2.20;;;;;;;;;;4435754;32;20236;-86
2022/09/13 11:28:04;;;;;;;2.53;1.95;;;;;;;;;;4426769;32;20351;-88
2022/09/13 11:30:39;;;;;;;5.78;1.73;;;;;;;;;;4422905;32;20220;-79
2022/09/13 11:33:33;;;;;;;2.15;1.95;;;;;;;;;;4422666;32;20703;-83
2022/09/13 11:36:22;;;;;;;3.35;2.60;;;;;;;;;;4412055;32;20237;-84
2022/09/13 11:39:02;;;;;;;3.60;2.60;;;;;;;;;;4403269;32;20269;-88
2022/09/13 11:41:38;;;;;;;4.47;2.33;;;;;;;;;;4390590;32;20256;-86
2022/09/13 11:44:26;;;;;;;4.05;3.15;;;;;;;;;;4390399;32;20638;-90
2022/09/13 11:47:00;;;;;;;2.87;2.40;;;;;;;;;;4389956;32;20678;-90
2022/09/13 11:50:00;;;;;;;7.37;2.50;;;;;;;;;;4392528;32;20255;-86
2022/09/13 11:52:39;;;;;;;3.55;2.70;;;;;;;;;;4404472;32;20249;-89
2022/09/13 11:55:17;;;;;;;3.65;2.60;;;;;;;;;;4405096;32;20217;-87
2022/09/13 11:57:49;;;;;;;7.62;3.20;;;;;;;;;;4404739;32;20592;-85
2022/09/13 12:00:22;;;;;;;3.30;3.00;;;;;;;;;;4405261;32;20274;-87
2022/09/13 12:02:59;;;;;;;3.58;2.72;;;;;;;;;;4405060;32;20255;-86
2022/09/13 12:05:30;;;;;;;9.20;3.25;;;;;;;;;;4405885;32;20209;-87
2022/09/13 12:08:02;;;;;;;2.50;2.30;;;;;;;;;;4405578;32;20233;-83
2022/09/13 12:10:37;;;;;;;3.20;2.70;;;;;;;;;;4405888;32;20221;-90
2022/09/13 12:13:07;;;;;;;5.22;2.53;;;;;;;;;;4404523;32;20344;-87
2022/09/13 12:15:38;;;;;;;8.13;2.45;;;;;;;;;;4404423;32;20554;-89
2022/09/13 12:18:13;;;;;;;2.75;2.50;;;;;;;;;;4405209;32;20308;-85
2022/09/13 12:20:46;;;;;;;2.47;2.20;;;;;;;;;;4404570;32;20241;-89
2022/09/13 12:23:19;;;;;;;3.35;2.30;;;;;;;;;;4405237;32;20251;-87
2022/09/13 12:25:50;;;;;;;4.93;2.65;;;;;;;;;;4412835;32;20280;-88
2022/09/13 12:28:23;;;;;;;3.03;2.80;;;;;;;;;;4406544;32;20255;-90
2022/09/13 12:30:55;;;;;;;7.28;2.70;;;;;;;;;;4407399;32;20214;-86
2022/09/13 12:33:27;;;;;;;3.42;2.30;;;;;;;;;;4407252;32;20302;-86
2022/09/13 12:36:30;;;;;;;4.90;2.58;;;;;;;;;;4406247;32;20259;-89
2022/09/13 12:39:27;;;;;;;3.37;2.15;;;;;;;;;;4403887;32;20798;-86
2022/09/13 12:42:23;;;;;;;3.72;2.55;;;;;;;;;;4405740;32;20283;-86
2022/09/13 12:45:02;;;;;;;8.18;2.08;;;;;;;;;;4373043;32;20344;-80
2022/09/13 12:47:44;;;;;;;2.85;2.25;;;;;;;;;;4406799;32;20273;-85
2022/09/13 12:50:37;;;;;;;2.92;2.12;;;;;;;;;;4400455;32;20355;-88
2022/09/13 12:53:17;;;;;;;2.83;2.25;;;;;;;;;;4392647;32;20328;-90
2022/09/13 12:56:04;;;;;;;2.58;1.90;;;;;;;;;;4392637;32;20263;-90
2022/09/13 12:58:47;;;;;;;1.95;1.70;;;;;;;;;;4393797;32;20241;-88
2022/09/13 13:01:19;;;;;;;3.03;2.28;;;;;;;;;;4397649;32;20306;-79
2022/09/13 13:03:52;;;;;;;4.07;2.08;;;;;;;;;;4404239;32;20225;-81
2022/09/13 13:06:34;;;;;;;2.53;2.20;;;;;;;;;;4404029;32;20252;-85
2022/09/13 13:09:04;;;;;;;5.60;2.75;;;;;;;;;;4406562;32;20260;-86
2022/09/13 13:11:44;;;;;;;2.00;1.80;;;;;;;;;;4401757;32;20273;-86
2022/09/13 13:14:30;;;;;;;3.72;1.90;;;;;;;;;;4426700;32;20229;-87
2022/09/13 13:17:30;;;;;;;3.47;2.40;;;;;;;;;;4423782;32;20267;-85
2022/09/13 13:19:57;;;;;;;2.67;2.12;;;;;;;;;;4421137;32;20232;-86
2022/09/13 13:22:52;;;;;;;2.65;2.35;;;;;;;;;;4421778;32;20221;-85
2022/09/13 13:25:32;;;;;;;4.30;2.25;;;;;;;;;;4420844;32;20625;-81
2022/09/13 13:27:59;;;;;;;2.40;2.17;;;;;;;;;;4415378;32;20228;-87
2022/09/13 13:30:52;;;;;;;2.65;2.37;;;;;;;;;;4406151;32;20660;-88
2022/09/13 13:33:24;;;;;;;4.65;2.15;;;;;;;;;;4369795;32;20254;-91
2022/09/13 13:35:51;;;;;;;3.47;2.42;;;;;;;;;;4392907;32;20260;-88
2022/09/13 13:38:45;;;;;;;5.03;2.17;;;;;;;;;;4391656;32;20282;-88
2022/09/13 13:41:44;;;;;;;3.20;2.03;;;;;;;;;;4390766;32;20233;-86
2022/09/13 13:44:48;;;;;;;3.45;2.70;;;;;;;;;;4389659;32;20252;-88
2022/09/13 13:47:54;;;;;;;3.53;2.28;;;;;;;;;;4375910;32;20362;-86
2022/09/13 13:50:23;;;;;;;6.68;3.90;;;;;;;;;;4367796;32;20341;-89
2022/09/13 13:53:05;;;;;;;3.58;2.53;;;;;;;;;;4390178;32;20669;-85
2022/09/13 13:55:45;;;;;;;2.95;2.50;;;;;;;;;;4389283;32;20295;-87
2022/09/13 13:58:26;;;;;;;7.32;3.25;;;;;;;;;;4378215;32;20353;-86
2022/09/13 14:00:56;;;;;;;6.50;2.92;;;;;;;;;;4389334;32;20591;-90
2022/09/13 14:03:32;;;;;;;5.03;2.35;;;;;;;;;;4388197;32;20222;-86
2022/09/13 14:06:11;;;;;;;2.67;2.22;;;;;;;;;;4388508;32;20236;-85
2022/09/13 14:08:51;;;;;;;2.15;1.95;;;;;;;;;;4389037;32;20221;-89
2022/09/13 14:11:33;;;;;;;3.37;2.40;;;;;;;;;;4389386;32;20239;-87
2022/09/13 14:14:14;;;;;;;5.03;3.00;;;;;;;;;;4402098;32;20324;-85
2022/09/13 14:16:53;;;;;;;4.05;3.42;;;;;;;;;;4390949;32;20667;-86
2022/09/13 14:19:34;;;;;;;3.67;2.55;;;;;;;;;;4405628;32;20213;-86
2022/09/13 14:22:13;;;;;;;2.30;1.73;;;;;;;;;;4404941;32;20245;-87
2022/09/13 14:24:45;;;;;;;2.95;2.33;;;;;;;;;;4390065;32;20252;-90
2022/09/13 14:27:21;;;;;;;2.75;2.25;;;;;;;;;;4403317;32;20300;-89
2022/09/13 14:29:52;;;;;;;2.62;2.42;;;;;;;;;;4401850;32;20711;-85
2022/09/13 14:32:23;;;;;;;4.15;2.67;;;;;;;;;;4404421;32;20232;-86
2022/09/13 14:34:59;;;;;;;6.80;2.42;;;;;;;;;;4404309;32;20247;-88
2022/09/13 14:37:32;;;;;;;4.03;2.75;;;;;;;;;;4404748;32;20311;-88
2022/09/13 14:40:01;;;;;;;4.62;2.10;;;;;;;;;;4405027;32;20229;-87
2022/09/13 14:42:40;;;;;;;2.42;2.00;;;;;;;;;;4404631;32;20235;-88
2022/09/13 14:45:15;;;;;;;2.45;2.22;;;;;;;;;;4404329;32;20240;-87
2022/09/13 14:47:50;;;;;;;3.58;1.75;;;;;;;;;;4404286;32;20233;-85
2022/09/13 14:50:21;;;;;;;4.72;2.22;;;;;;;;;;4396514;32;20273;-84
2022/09/13 14:52:50;;;;;;;2.42;1.92;;;;;;;;;;4388930;32;20547;-87
2022/09/13 14:55:24;;;;;;;1.70;1.60;;;;;;;;;;4388951;32;20237;-86
2022/09/13 14:58:00;;;;;;;2.60;1.98;;;;;;;;;;4389156;32;20202;-86
2022/09/13 15:00:28;;;;;;;1.95;1.55;;;;;;;;;;4387673;32;20751;-87
2022/09/13 15:03:02;;;;;;;2.25;1.98;;;;;;;;;;4388880;32;20246;-85
2022/09/13 15:05:32;;;;;;;3.15;1.70;;;;;;;;;;4390287;32;20254;-86
2022/09/13 15:08:00;;;;;;;4.05;2.00;;;;;;;;;;4390449;32;20600;-89
2022/09/13 15:10:31;;;;;;;4.40;2.35;;;;;;;;;;4388672;32;20261;-80
2022/09/13 15:13:09;;;;;;;2.65;1.70;;;;;;;;;;4404127;32;20261;-87
2022/09/13 15:15:38;;;;;;;1.90;1.70;;;;;;;;;;4422191;32;20236;-85
2022/09/13 15:18:07;;;;;;;4.07;2.60;;;;;;;;;;4420845;32;20785;-86
2022/09/13 15:20:49;;;;;;;4.18;2.72;;;;;;;;;;4414230;32;20260;-84
2022/09/13 15:23:18;;;;;;;2.62;2.20;;;;;;;;;;4405888;32;20325;-87
2022/09/13 15:25:51;;;;;;;6.15;2.97;;;;;;;;;;4390935;32;20682;-87
2022/09/13 15:28:34;;;;;;;13.68;3.15;;;;;;;;;;4390914;32;20214;-78
2022/09/13 15:31:02;;;;;;;5.55;2.20;;;;;;;;;;4390587;32;20217;-78
2022/09/13 15:33:30;;;;;;;10.52;3.35;;;;;;;;;;4389308;32;20539;-86
2022/09/13 15:36:28;;;;;;;3.80;2.50;;;;;;;;;;4390256;32;20628;-82
2022/09/13 15:39:04;;;;;;;5.25;2.95;;;;;;;;;;4390358;32;20256;-87
2022/09/13 15:41:33;;;;;;;4.60;3.20;;;;;;;;;;4394353;32;20237;-82